createdAt,value
2023-03-05T00:01:29.319Z,14.48
2023-03-05T00:03:58.091Z,13.05
2023-03-05T00:06:27.732Z,16.60
2023-03-05T00:08:56.954Z,12.70
2023-03-05T00:11:28.455Z,11.10
2023-03-05T00:13:57.307Z,13.52
2023-03-05T00:16:27.625Z,9.10
2023-03-05T00:18:56.450Z,14.15
2023-03-05T00:21:27.719Z,12.70
2023-03-05T00:23:57.134Z,15.48
2023-03-05T00:26:27.361Z,15.75
2023-03-05T00:28:56.207Z,27.42
2023-03-05T00:31:26.973Z,15.10
2023-03-05T00:33:55.996Z,11.10
2023-03-05T00:36:25.253Z,9.95
2023-03-05T00:38:53.584Z,13.82
2023-03-05T00:41:21.878Z,12.77
2023-03-05T00:43:49.695Z,11.43
2023-03-05T00:46:18.380Z,10.38
2023-03-05T00:48:47.392Z,12.88
2023-03-05T00:51:15.996Z,10.10
2023-03-05T00:53:43.883Z,10.38
2023-03-05T00:56:11.886Z,14.13
2023-03-05T00:58:39.847Z,12.52
2023-03-05T01:01:08.671Z,11.13
2023-03-05T01:03:36.737Z,15.23
2023-03-05T01:06:08.185Z,16.95
2023-03-05T01:08:36.175Z,18.92
2023-03-05T01:11:08.498Z,16.25
2023-03-05T01:13:36.426Z,20.77
2023-03-05T01:16:05.163Z,18.25
2023-03-05T01:18:33.174Z,13.23
2023-03-05T01:21:00.892Z,17.35
2023-03-05T01:23:28.287Z,15.40
2023-03-05T01:25:57.902Z,20.30
2023-03-05T01:28:26.327Z,18.88
2023-03-05T01:30:54.370Z,22.00
2023-03-05T01:33:21.705Z,19.95
2023-03-05T01:35:50.392Z,19.98
2023-03-05T01:38:19.370Z,17.15
2023-03-05T01:40:47.452Z,20.83
2023-03-05T01:43:28.281Z,17.83
2023-03-05T01:46:16.916Z,20.85
2023-03-05T01:49:16.314Z,14.65
2023-03-05T01:52:18.145Z,19.08
2023-03-05T01:55:01.942Z,19.50
2023-03-05T01:57:34.226Z,22.80
2023-03-05T02:00:07.198Z,19.05
2023-03-05T02:02:42.701Z,20.70
2023-03-05T02:05:13.750Z,16.55
2023-03-05T02:07:43.264Z,13.88
2023-03-05T02:10:22.520Z,14.85
2023-03-05T02:12:50.849Z,18.08
2023-03-05T02:15:18.608Z,19.05
2023-03-05T02:17:46.385Z,15.70
2023-03-05T02:20:17.825Z,19.02
2023-03-05T02:22:45.891Z,20.13
2023-03-05T02:25:27.755Z,18.52
2023-03-05T02:28:00.585Z,14.82
2023-03-05T02:30:29.013Z,14.45
2023-03-05T02:32:57.404Z,15.98
2023-03-05T02:35:25.480Z,13.15
2023-03-05T02:37:53.232Z,17.63
2023-03-05T02:40:20.606Z,17.98
2023-03-05T02:42:49.337Z,18.00
2023-03-05T02:45:17.582Z,19.45
2023-03-05T02:47:45.166Z,22.00
2023-03-05T02:50:12.690Z,23.50
2023-03-05T02:52:40.762Z,13.13
2023-03-05T02:55:13.413Z,12.77
2023-03-05T02:57:42.227Z,18.10
2023-03-05T03:00:10.696Z,19.08
2023-03-05T03:02:39.292Z,17.10
2023-03-05T03:05:07.629Z,18.65
2023-03-05T03:07:36.710Z,23.85
2023-03-05T03:10:05.426Z,14.23
2023-03-05T03:12:37.739Z,16.10
2023-03-05T03:15:05.908Z,19.83
2023-03-05T03:17:35.590Z,19.67
2023-03-05T03:20:04.886Z,18.33
2023-03-05T03:22:32.914Z,15.20
2023-03-05T03:25:01.384Z,17.52
2023-03-05T03:27:29.024Z,16.45
2023-03-05T03:29:56.367Z,21.15
2023-03-05T03:32:24.176Z,23.33
2023-03-05T03:34:51.721Z,19.00
2023-03-05T03:37:19.551Z,15.85
2023-03-05T03:39:46.970Z,25.17
2023-03-05T03:42:18.018Z,19.40
2023-03-05T03:44:45.444Z,16.33
2023-03-05T03:47:13.203Z,15.55
2023-03-05T03:49:40.495Z,17.38
2023-03-05T03:52:08.516Z,17.98
2023-03-05T03:54:36.094Z,15.77
2023-03-05T03:57:04.050Z,20.15
2023-03-05T03:59:31.416Z,15.13
2023-03-05T04:01:59.089Z,17.50
2023-03-05T04:04:26.882Z,20.38
2023-03-05T04:06:54.647Z,19.08
2023-03-05T04:09:22.124Z,17.65
2023-03-05T04:11:49.937Z,16.98
2023-03-05T04:14:17.324Z,21.00
2023-03-05T04:16:44.989Z,19.15
2023-03-05T04:19:12.309Z,17.58
2023-03-05T04:21:40.345Z,14.02
2023-03-05T04:24:08.455Z,17.55
2023-03-05T04:26:36.278Z,19.85
2023-03-05T04:29:03.562Z,15.07
2023-03-05T04:31:31.339Z,18.52
2023-03-05T04:33:59.886Z,22.20
2023-03-05T04:36:27.769Z,18.30
2023-03-05T04:38:55.119Z,16.35
2023-03-05T04:41:22.992Z,25.40
2023-03-05T04:43:50.376Z,15.20
2023-03-05T04:46:18.250Z,19.83
2023-03-05T04:48:45.570Z,14.77
2023-03-05T04:51:13.224Z,17.17
2023-03-05T04:53:40.662Z,18.13
2023-03-05T04:56:08.644Z,18.85
2023-03-05T04:58:36.011Z,22.60
2023-03-05T05:01:05.310Z,18.13
2023-03-05T05:03:33.244Z,13.80
2023-03-05T05:06:01.791Z,16.52
2023-03-05T05:08:29.559Z,22.77
2023-03-05T05:11:05.514Z,14.15
2023-03-05T05:13:33.568Z,21.60
2023-03-05T05:16:01.350Z,15.07
2023-03-05T05:18:28.737Z,17.73
2023-03-05T05:20:56.522Z,15.30
2023-03-05T05:23:24.302Z,16.63
2023-03-05T05:26:00.016Z,17.98
2023-03-05T05:28:27.904Z,21.13
2023-03-05T05:30:55.855Z,15.10
2023-03-05T05:33:23.978Z,15.95
2023-03-05T05:35:51.863Z,15.35
2023-03-05T05:38:19.337Z,15.95
2023-03-05T05:40:46.969Z,19.02
2023-03-05T05:43:14.498Z,17.25
2023-03-05T05:45:42.377Z,23.08
2023-03-05T05:48:09.931Z,19.38
2023-03-05T05:50:39.574Z,16.67
2023-03-05T05:53:06.848Z,19.83
2023-03-05T05:55:34.428Z,23.67
2023-03-05T05:58:01.945Z,17.23
2023-03-05T06:00:29.618Z,20.05
2023-03-05T06:02:57.180Z,19.42
2023-03-05T06:05:25.043Z,15.80
2023-03-05T06:07:52.379Z,17.38
2023-03-05T06:10:20.385Z,18.20
2023-03-05T06:12:47.999Z,16.70
2023-03-05T06:15:15.647Z,22.08
2023-03-05T06:17:43.128Z,15.77
2023-03-05T06:20:11.775Z,21.00
2023-03-05T06:22:39.523Z,20.70
2023-03-05T06:25:08.626Z,14.55
2023-03-05T06:27:36.281Z,18.35
2023-03-05T06:30:05.564Z,15.70
2023-03-05T06:32:33.046Z,17.88
2023-03-05T06:35:00.778Z,20.08
2023-03-05T06:37:28.132Z,13.20
2023-03-05T06:39:55.716Z,14.55
2023-03-05T06:42:23.028Z,17.00
2023-03-05T06:44:50.590Z,14.63
2023-03-05T06:47:17.957Z,14.43
2023-03-05T06:49:45.442Z,17.73
2023-03-05T06:52:13.097Z,16.30
2023-03-05T06:54:40.819Z,13.48
2023-03-05T06:57:10.446Z,24.17
2023-03-05T06:59:38.326Z,14.90
2023-03-05T07:02:05.908Z,14.75
2023-03-05T07:04:33.701Z,11.95
2023-03-05T07:07:01.360Z,9.63
2023-03-05T07:09:29.255Z,12.05
2023-03-05T07:11:56.917Z,17.73
2023-03-05T07:14:24.447Z,12.75
2023-03-05T07:16:51.796Z,18.75
2023-03-05T07:19:19.613Z,13.82
2023-03-05T07:21:47.618Z,17.55
2023-03-05T07:24:15.294Z,15.98
2023-03-05T07:26:42.954Z,17.65
2023-03-05T07:29:10.878Z,13.88
2023-03-05T07:31:38.346Z,11.93
2023-03-05T07:34:06.680Z,13.38
2023-03-05T07:36:35.256Z,17.40
2023-03-05T07:39:05.105Z,14.52
2023-03-05T07:41:33.492Z,16.02
2023-03-05T07:44:01.702Z,12.07
2023-03-05T07:46:32.201Z,14.20
2023-03-05T07:49:00.708Z,19.42
2023-03-05T07:51:28.853Z,12.13
2023-03-05T07:53:59.063Z,13.98
2023-03-05T07:56:37.303Z,13.50
2023-03-05T07:59:07.259Z,16.10
2023-03-05T08:01:35.694Z,15.50
2023-03-05T08:04:04.596Z,18.00
2023-03-05T08:06:31.970Z,17.27
2023-03-05T08:09:00.595Z,15.18
2023-03-05T08:11:28.842Z,18.40
2023-03-05T08:13:59.824Z,11.93
2023-03-05T08:16:28.289Z,14.52
2023-03-05T08:18:57.635Z,14.98
2023-03-05T08:21:29.607Z,14.85
2023-03-05T08:23:57.947Z,19.85
2023-03-05T08:26:27.343Z,16.85
2023-03-05T08:28:55.631Z,20.80
2023-03-05T08:31:24.772Z,15.13
2023-03-05T08:33:55.294Z,15.85
2023-03-05T08:36:23.258Z,16.92
2023-03-05T08:38:51.561Z,14.48
2023-03-05T08:41:19.811Z,11.98
2023-03-05T08:43:48.598Z,13.32
2023-03-05T08:46:17.212Z,13.73
2023-03-05T08:48:45.760Z,14.50
2023-03-05T08:51:15.380Z,12.20
2023-03-05T08:53:45.312Z,20.50
2023-03-05T08:56:13.762Z,13.82
2023-03-05T08:58:41.434Z,12.40
2023-03-05T09:01:08.728Z,19.95
2023-03-05T09:03:36.896Z,16.23
2023-03-05T09:06:07.762Z,16.15
2023-03-05T09:08:36.408Z,16.55
2023-03-05T09:11:05.501Z,18.60
2023-03-05T09:13:33.756Z,22.10
2023-03-05T09:16:04.136Z,13.45
2023-03-05T09:18:32.451Z,17.05
2023-03-05T09:21:05.139Z,16.52
2023-03-05T09:23:33.153Z,17.27
2023-03-05T09:26:00.521Z,17.52
2023-03-05T09:28:28.425Z,17.42
2023-03-05T09:30:55.615Z,17.65
2023-03-05T09:33:23.668Z,17.70
2023-03-05T09:35:51.596Z,19.88
2023-03-05T09:38:19.638Z,17.73
2023-03-05T09:41:10.371Z,20.83
2023-03-05T09:44:03.949Z,18.20
2023-03-05T09:47:04.096Z,22.23
2023-03-05T09:49:57.553Z,15.05
2023-03-05T09:52:50.638Z,17.95
2023-03-05T09:57:59.496Z,19.52
2023-03-05T10:00:32.948Z,20.50
2023-03-05T10:03:05.642Z,20.25
2023-03-05T10:08:12.464Z,21.75
2023-03-05T10:10:52.677Z,16.42
2023-03-05T10:13:29.433Z,18.95
2023-03-05T10:16:06.841Z,16.02
2023-03-05T10:18:55.914Z,14.95
2023-03-05T10:21:45.463Z,16.02
2023-03-05T10:24:15.621Z,16.27
2023-03-05T10:26:59.984Z,17.00
2023-03-05T10:29:39.857Z,20.20
2023-03-05T10:32:35.876Z,16.70
2023-03-05T10:35:34.784Z,17.08
2023-03-05T10:38:16.250Z,14.23
2023-03-05T10:40:48.391Z,26.42
2023-03-05T10:43:51.748Z,19.88
2023-03-05T10:46:21.794Z,25.70
2023-03-05T10:48:53.873Z,17.98
2023-03-05T10:51:42.172Z,20.60
2023-03-05T10:54:19.519Z,20.88
2023-03-05T10:56:46.736Z,17.52
2023-03-05T10:59:14.328Z,20.42
2023-03-05T11:01:41.988Z,19.35
2023-03-05T11:04:30.281Z,16.27
2023-03-05T11:06:58.051Z,27.83
2023-03-05T11:09:29.484Z,22.58
2023-03-05T11:12:19.769Z,24.13
2023-03-05T11:15:07.924Z,17.75
2023-03-05T11:17:49.194Z,25.30
2023-03-05T11:20:36.006Z,23.65
2023-03-05T11:23:24.891Z,24.20
2023-03-05T11:26:15.598Z,20.55
2023-03-05T11:28:52.131Z,13.70
2023-03-05T11:31:21.973Z,13.82
2023-03-05T11:34:12.158Z,12.95
2023-03-05T11:37:03.821Z,9.98
2023-03-05T11:39:34.447Z,15.38
2023-03-05T11:42:06.913Z,8.10
2023-03-05T11:44:50.872Z,9.25
2023-03-05T11:47:36.175Z,10.02
2023-03-05T11:50:23.805Z,11.82
2023-03-05T11:53:09.776Z,15.07
2023-03-05T11:56:00.670Z,8.73
2023-03-05T11:58:49.587Z,11.65
2023-03-05T12:01:20.879Z,15.43
2023-03-05T12:03:50.519Z,9.27
2023-03-05T12:06:27.190Z,14.18
2023-03-05T12:08:58.717Z,11.02
2023-03-05T12:11:31.231Z,13.50
2023-03-05T12:14:24.825Z,12.13
2023-03-05T12:20:00.234Z,21.00
2023-03-05T12:22:35.202Z,11.57
2023-03-05T12:25:29.412Z,11.88
2023-03-05T12:27:57.457Z,13.30
2023-03-05T12:30:48.865Z,16.00
2023-03-05T12:33:35.782Z,18.15
2023-03-05T12:36:22.799Z,26.98
2023-03-05T12:38:57.114Z,28.20
2023-03-05T12:41:27.431Z,20.70
2023-03-05T12:44:07.417Z,18.38
2023-03-05T12:46:42.739Z,21.40
2023-03-05T12:49:27.334Z,12.98
2023-03-05T12:52:00.165Z,20.65
2023-03-05T12:54:35.716Z,24.65
2023-03-05T12:57:07.176Z,22.02
2023-03-05T12:59:42.345Z,24.83
2023-03-05T13:02:36.718Z,17.17
2023-03-05T13:05:28.288Z,29.30
2023-03-05T13:08:21.832Z,20.35
2023-03-05T13:10:58.111Z,22.50
2023-03-05T13:13:27.588Z,21.55
2023-03-05T13:15:55.182Z,22.80
2023-03-05T13:18:31.143Z,18.42
2023-03-05T13:21:04.861Z,18.30
2023-03-05T13:23:34.218Z,15.88
2023-03-05T13:26:15.619Z,15.20
2023-03-05T13:28:45.208Z,16.33
2023-03-05T13:31:21.422Z,31.52
2023-03-05T13:33:54.847Z,14.93
2023-03-05T13:38:51.125Z,25.55
2023-03-05T13:41:20.377Z,16.45
2023-03-05T13:43:58.285Z,15.90
2023-03-05T13:46:32.265Z,18.30
2023-03-05T13:49:23.113Z,20.98
2023-03-05T13:51:53.968Z,14.20
2023-03-05T13:54:23.375Z,11.20
2023-03-05T13:56:56.970Z,13.55
2023-03-05T13:59:30.955Z,11.13
2023-03-05T14:02:00.185Z,19.13
2023-03-05T14:04:39.117Z,23.85
2023-03-05T14:07:08.793Z,26.13
2023-03-05T14:09:39.452Z,19.42
2023-03-05T14:12:21.637Z,21.77
2023-03-05T14:14:49.311Z,21.73
2023-03-05T14:17:42.537Z,17.25
2023-03-05T14:20:13.245Z,15.30
2023-03-05T14:22:43.376Z,13.63
2023-03-05T14:25:42.430Z,12.43
2023-03-05T14:28:28.344Z,13.25
2023-03-05T14:30:57.058Z,11.73
2023-03-05T14:33:32.596Z,17.88
2023-03-05T14:36:01.163Z,13.52
2023-03-05T14:38:30.895Z,16.35
2023-03-05T14:40:58.677Z,10.65
2023-03-05T14:43:26.009Z,11.38
2023-03-05T14:45:53.861Z,15.88
2023-03-05T14:48:21.195Z,16.10
2023-03-05T14:50:57.102Z,14.80
2023-03-05T14:53:27.299Z,13.60
2023-03-05T14:55:57.067Z,17.15
2023-03-05T14:58:32.588Z,22.88
2023-03-05T15:01:00.431Z,18.30
2023-03-05T15:03:28.195Z,21.80
2023-03-05T15:05:57.519Z,14.20
2023-03-05T15:08:30.638Z,13.25
2023-03-05T15:10:59.769Z,22.50
2023-03-05T15:13:27.306Z,16.15
2023-03-05T15:15:55.490Z,21.73
2023-03-05T15:18:23.919Z,18.30
2023-03-05T15:20:55.514Z,27.83
2023-03-05T15:23:23.384Z,27.90
2023-03-05T15:25:51.302Z,16.80
2023-03-05T15:28:18.901Z,18.63
2023-03-05T15:30:47.465Z,20.17
2023-03-05T15:33:16.790Z,16.98
2023-03-05T15:35:45.144Z,21.15
2023-03-05T15:38:12.492Z,19.17
2023-03-05T15:40:40.854Z,18.23
2023-03-05T15:43:10.388Z,19.17
2023-03-05T15:45:39.380Z,21.30
2023-03-05T15:48:11.174Z,22.85
2023-03-05T15:50:43.660Z,27.83
2023-03-05T15:53:16.406Z,23.90
2023-03-05T15:55:46.438Z,22.08
2023-03-05T15:58:16.172Z,22.90
2023-03-05T16:00:44.620Z,19.63
2023-03-05T16:03:12.497Z,25.38
2023-03-05T16:05:40.352Z,22.30
2023-03-05T16:08:08.750Z,20.88
2023-03-05T16:10:40.159Z,24.13
2023-03-05T16:13:13.806Z,20.55
2023-03-05T16:15:42.136Z,24.83
2023-03-05T16:18:24.863Z,24.15
2023-03-05T16:20:57.079Z,26.60
2023-03-05T16:23:24.991Z,25.00
2023-03-05T16:25:52.799Z,24.42
2023-03-05T16:28:20.212Z,27.67
2023-03-05T16:30:55.875Z,22.42
2023-03-05T16:33:23.878Z,28.13
2023-03-05T16:36:11.588Z,24.98
2023-03-05T16:38:39.012Z,25.45
2023-03-05T16:41:08.867Z,25.42
2023-03-05T16:43:37.736Z,28.10
2023-03-05T16:46:06.298Z,24.98
2023-03-05T16:48:34.360Z,21.85
2023-03-05T16:51:02.880Z,22.25
2023-03-05T16:53:30.687Z,28.15
2023-03-05T16:55:59.100Z,20.45
2023-03-05T16:58:26.437Z,23.60
2023-03-05T17:00:54.120Z,22.75
2023-03-05T17:03:22.214Z,24.00
2023-03-05T17:05:49.935Z,30.13
2023-03-05T17:08:17.390Z,27.65
2023-03-05T17:10:45.769Z,25.42
2023-03-05T17:13:13.222Z,28.02
2023-03-05T17:18:10.256Z,36.28
2023-03-05T17:20:38.106Z,31.77
2023-03-05T17:23:05.561Z,39.83
2023-03-05T17:25:33.274Z,45.70
2023-03-05T17:28:00.713Z,38.70
2023-03-05T17:30:28.561Z,34.00
2023-03-05T17:32:56.002Z,39.95
2023-03-05T17:35:24.120Z,39.17
2023-03-05T17:37:53.743Z,40.60
2023-03-05T17:40:22.872Z,49.40
2023-03-05T17:42:50.454Z,45.55
2023-03-05T17:45:18.208Z,38.03
2023-03-05T17:47:45.488Z,44.40
2023-03-05T17:50:14.431Z,37.00
2023-03-05T17:52:41.987Z,43.05
2023-03-05T17:55:11.164Z,43.20
2023-03-05T17:57:41.663Z,45.53
2023-03-05T18:00:24.945Z,54.53
2023-03-05T18:05:22.407Z,41.97
2023-03-05T18:07:50.475Z,38.33
2023-03-05T18:10:19.466Z,40.88
2023-03-05T18:12:47.098Z,43.40
2023-03-05T18:15:16.268Z,45.95
2023-03-05T18:17:44.258Z,41.30
2023-03-05T18:20:26.399Z,32.65
2023-03-05T18:22:54.330Z,39.80
2023-03-05T18:25:23.535Z,52.00
2023-03-05T18:27:50.906Z,41.80
2023-03-05T18:30:18.907Z,35.10
2023-03-05T18:32:47.793Z,43.08
2023-03-05T18:35:15.513Z,37.35
2023-03-05T18:37:42.915Z,45.15
2023-03-05T18:40:16.880Z,49.33
2023-03-05T18:42:46.288Z,42.15
2023-03-05T18:45:15.557Z,48.83
2023-03-05T18:47:43.348Z,36.92
2023-03-05T18:50:15.128Z,46.83
2023-03-05T18:52:43.075Z,40.03
2023-03-05T18:55:27.126Z,38.03
2023-03-05T18:57:55.262Z,42.92
2023-03-05T19:00:32.373Z,41.50
2023-03-05T19:03:00.302Z,44.47
2023-03-05T19:05:28.364Z,49.33
2023-03-05T19:07:56.604Z,50.45
2023-03-05T19:10:24.776Z,53.35
2023-03-05T19:13:08.163Z,50.25
2023-03-05T19:15:39.793Z,44.33
2023-03-05T19:18:07.232Z,56.00
2023-03-05T19:20:35.505Z,60.38
2023-03-05T19:23:05.763Z,51.22
2023-03-05T19:25:36.469Z,61.22
2023-03-05T19:28:04.348Z,60.88
2023-03-05T19:30:32.504Z,53.28
2023-03-05T19:33:04.012Z,55.92
2023-03-05T19:35:32.708Z,53.80
2023-03-05T19:38:03.440Z,52.63
2023-03-05T19:40:31.917Z,53.05
2023-03-05T19:43:02.583Z,48.25
2023-03-05T19:45:34.065Z,51.38
2023-03-05T19:48:01.667Z,68.55
2023-03-05T19:50:29.590Z,63.47
2023-03-05T19:52:57.573Z,76.22
2023-03-05T19:55:28.983Z,62.73
2023-03-05T19:57:57.361Z,55.03
2023-03-05T20:00:27.850Z,61.97
2023-03-05T20:02:55.273Z,58.53
2023-03-05T20:05:26.142Z,59.42
2023-03-05T20:07:54.149Z,54.80
2023-03-05T20:10:22.832Z,57.88
2023-03-05T20:12:51.442Z,52.42
2023-03-05T20:15:21.475Z,55.20
2023-03-05T20:17:49.285Z,57.92
2023-03-05T20:20:21.491Z,65.05
2023-03-05T20:22:49.506Z,52.22
2023-03-05T20:25:21.550Z,55.97
2023-03-05T20:27:52.126Z,65.40
2023-03-05T20:30:25.449Z,60.37
2023-03-05T20:32:55.341Z,56.17
2023-03-05T20:35:26.120Z,58.75
2023-03-05T20:38:17.940Z,69.75
2023-03-05T20:40:45.534Z,96.95
2023-03-05T20:43:13.042Z,68.47
2023-03-05T20:45:41.800Z,85.63
2023-03-05T20:48:12.600Z,77.57
2023-03-05T20:50:41.373Z,56.95
2023-03-05T20:53:10.768Z,64.55
2023-03-05T20:55:38.678Z,74.53
2023-03-05T20:58:06.335Z,82.00
2023-03-05T21:00:35.052Z,78.38
2023-03-05T21:03:06.471Z,71.05
2023-03-05T21:05:42.300Z,83.07
2023-03-05T21:08:10.530Z,69.13
2023-03-05T21:10:39.140Z,62.67
2023-03-05T21:13:06.597Z,66.90
2023-03-05T21:15:35.070Z,69.28
2023-03-05T21:18:09.042Z,65.95
2023-03-05T21:20:36.869Z,64.78
2023-03-05T21:23:04.247Z,62.70
2023-03-05T21:25:33.483Z,74.07
2023-03-05T21:28:07.287Z,74.32
2023-03-05T21:30:42.750Z,67.75
2023-03-05T21:33:13.946Z,75.43
2023-03-05T21:35:42.564Z,66.50
2023-03-05T21:38:10.272Z,64.45
2023-03-05T21:40:43.660Z,60.30
2023-03-05T21:43:12.431Z,64.45
2023-03-05T21:45:41.062Z,60.13
2023-03-05T21:48:09.454Z,70.05
2023-03-05T21:50:39.837Z,68.07
2023-03-05T21:53:08.087Z,66.70
2023-03-05T21:55:46.758Z,66.15
2023-03-05T21:58:14.932Z,73.93
2023-03-05T22:00:42.983Z,68.78
2023-03-05T22:03:10.476Z,74.05
2023-03-05T22:05:38.228Z,71.97
2023-03-05T22:08:05.667Z,67.43
2023-03-05T22:10:33.671Z,65.82
2023-03-05T22:13:02.396Z,64.95
2023-03-05T22:15:31.983Z,70.25
2023-03-05T22:18:00.161Z,60.20
2023-03-05T22:20:27.915Z,67.28
2023-03-05T22:22:55.460Z,58.30
2023-03-05T22:25:24.001Z,68.40
2023-03-05T22:27:51.525Z,64.90
2023-03-05T22:30:20.413Z,78.65
2023-03-05T22:32:47.667Z,66.40
2023-03-05T22:35:16.329Z,65.97
2023-03-05T22:37:44.257Z,74.05
2023-03-05T22:40:17.062Z,95.68
2023-03-05T22:42:44.852Z,104.25
2023-03-05T22:45:13.940Z,81.70
2023-03-05T22:47:41.280Z,95.70
2023-03-05T22:50:10.082Z,73.55
2023-03-05T22:52:37.514Z,71.45
2023-03-05T22:55:05.723Z,90.35
2023-03-05T22:57:33.277Z,82.82
2023-03-05T23:00:00.872Z,75.65
2023-03-05T23:02:28.306Z,74.88
2023-03-05T23:05:00.697Z,85.00
2023-03-05T23:07:30.530Z,78.75
2023-03-05T23:10:04.750Z,74.97
2023-03-05T23:12:33.911Z,73.55
2023-03-05T23:15:13.788Z,71.18
2023-03-05T23:17:41.295Z,68.80
2023-03-05T23:20:11.800Z,66.53
2023-03-05T23:22:40.505Z,71.95
2023-03-05T23:25:08.646Z,68.30
2023-03-05T23:27:35.972Z,75.32
2023-03-05T23:30:23.120Z,69.05
2023-03-05T23:32:52.784Z,71.10
2023-03-05T23:35:23.715Z,80.32
2023-03-05T23:37:52.202Z,71.88
2023-03-05T23:40:25.275Z,71.18
2023-03-05T23:42:53.228Z,72.65
2023-03-05T23:45:22.744Z,70.63
2023-03-05T23:47:51.336Z,73.13
2023-03-05T23:50:21.758Z,68.18
2023-03-05T23:52:50.265Z,76.28
2023-03-05T23:55:24.436Z,81.97
2023-03-05T23:57:52.185Z,74.45
